sensor_id;sensor_type;location;lat;lon;timestamp;P1;durP1;ratioP1;P2;durP2;ratioP2
11189;SDS011;5651;50.926;4.718;2022-08-19T00:02:14;27.65;;;22.35;;
11189;SDS011;5651;50.926;4.718;2022-08-19T00:04:39;26.10;;;22.23;;
11189;SDS011;5651;50.926;4.718;2022-08-19T00:07:06;27.48;;;23.17;;
11189;SDS011;5651;50.926;4.718;2022-08-19T00:09:32;31.27;;;24.67;;
11189;SDS011;5651;50.926;4.718;2022-08-19T00:11:59;30.35;;;24.08;;
11189;SDS011;5651;50.926;4.718;2022-08-19T00:14:25;27.42;;;21.80;;
11189;SDS011;5651;50.926;4.718;2022-08-19T00:16:53;28.67;;;23.55;;
11189;SDS011;5651;50.926;4.718;2022-08-19T00:19:20;31.95;;;24.00;;
11189;SDS011;5651;50.926;4.718;2022-08-19T00:21:51;29.88;;;22.90;;
11189;SDS011;5651;50.926;4.718;2022-08-19T00:24:17;28.15;;;22.42;;
11189;SDS011;5651;50.926;4.718;2022-08-19T00:26:44;28.88;;;23.67;;
11189;SDS011;5651;50.926;4.718;2022-08-19T00:29:11;32.83;;;24.60;;
11189;SDS011;5651;50.926;4.718;2022-08-19T00:31:38;30.55;;;23.48;;
11189;SDS011;5651;50.926;4.718;2022-08-19T00:34:04;29.67;;;23.65;;
11189;SDS011;5651;50.926;4.718;2022-08-19T00:36:30;29.33;;;23.98;;
11189;SDS011;5651;50.926;4.718;2022-08-19T00:39:01;32.03;;;24.63;;
11189;SDS011;5651;50.926;4.718;2022-08-19T00:41:26;29.30;;;23.25;;
11189;SDS011;5651;50.926;4.718;2022-08-19T00:44:02;31.38;;;24.88;;
11189;SDS011;5651;50.926;4.718;2022-08-19T00:46:40;34.90;;;23.38;;
11189;SDS011;5651;50.926;4.718;2022-08-19T00:49:16;30.73;;;23.00;;
11189;SDS011;5651;50.926;4.718;2022-08-19T00:51:47;36.40;;;24.63;;
11189;SDS011;5651;50.926;4.718;2022-08-19T00:54:15;33.17;;;22.90;;
11189;SDS011;5651;50.926;4.718;2022-08-19T00:56:42;29.70;;;22.63;;
11189;SDS011;5651;50.926;4.718;2022-08-19T00:59:09;27.48;;;22.02;;
11189;SDS011;5651;50.926;4.718;2022-08-19T01:01:39;30.15;;;22.38;;
11189;SDS011;5651;50.926;4.718;2022-08-19T01:04:07;35.87;;;24.87;;
11189;SDS011;5651;50.926;4.718;2022-08-19T01:06:33;33.33;;;24.23;;
11189;SDS011;5651;50.926;4.718;2022-08-19T01:09:01;33.90;;;23.63;;
11189;SDS011;5651;50.926;4.718;2022-08-19T01:11:27;41.50;;;25.75;;
11189;SDS011;5651;50.926;4.718;2022-08-19T01:13:55;41.10;;;26.45;;
11189;SDS011;5651;50.926;4.718;2022-08-19T01:16:21;50.13;;;30.70;;
11189;SDS011;5651;50.926;4.718;2022-08-19T01:18:50;46.38;;;28.85;;
11189;SDS011;5651;50.926;4.718;2022-08-19T01:21:18;50.00;;;30.58;;
11189;SDS011;5651;50.926;4.718;2022-08-19T01:23:45;46.67;;;28.73;;
11189;SDS011;5651;50.926;4.718;2022-08-19T01:26:13;48.13;;;29.52;;
11189;SDS011;5651;50.926;4.718;2022-08-19T01:28:42;50.80;;;29.30;;
11189;SDS011;5651;50.926;4.718;2022-08-19T01:31:13;53.40;;;31.17;;
11189;SDS011;5651;50.926;4.718;2022-08-19T01:33:41;54.53;;;30.88;;
11189;SDS011;5651;50.926;4.718;2022-08-19T01:36:08;66.22;;;34.67;;
11189;SDS011;5651;50.926;4.718;2022-08-19T01:38:39;56.67;;;33.00;;
11189;SDS011;5651;50.926;4.718;2022-08-19T01:41:07;56.58;;;32.33;;
11189;SDS011;5651;50.926;4.718;2022-08-19T01:43:32;58.75;;;32.28;;
11189;SDS011;5651;50.926;4.718;2022-08-19T01:45:58;60.80;;;33.00;;
11189;SDS011;5651;50.926;4.718;2022-08-19T01:48:24;66.05;;;33.17;;
11189;SDS011;5651;50.926;4.718;2022-08-19T01:50:50;64.60;;;34.10;;
11189;SDS011;5651;50.926;4.718;2022-08-19T01:53:16;64.47;;;34.70;;
11189;SDS011;5651;50.926;4.718;2022-08-19T01:55:42;67.78;;;37.95;;
11189;SDS011;5651;50.926;4.718;2022-08-19T01:58:11;72.15;;;37.70;;
11189;SDS011;5651;50.926;4.718;2022-08-19T02:00:40;77.18;;;38.00;;
11189;SDS011;5651;50.926;4.718;2022-08-19T02:03:07;65.25;;;34.97;;
11189;SDS011;5651;50.926;4.718;2022-08-19T02:05:36;68.90;;;36.03;;
11189;SDS011;5651;50.926;4.718;2022-08-19T02:08:03;67.95;;;36.38;;
11189;SDS011;5651;50.926;4.718;2022-08-19T02:10:30;69.85;;;35.03;;
11189;SDS011;5651;50.926;4.718;2022-08-19T02:12:57;70.88;;;36.92;;
11189;SDS011;5651;50.926;4.718;2022-08-19T02:15:23;69.00;;;35.80;;
11189;SDS011;5651;50.926;4.718;2022-08-19T02:17:50;61.97;;;33.45;;
11189;SDS011;5651;50.926;4.718;2022-08-19T02:20:17;72.72;;;35.83;;
11189;SDS011;5651;50.926;4.718;2022-08-19T02:22:43;69.00;;;34.72;;
11189;SDS011;5651;50.926;4.718;2022-08-19T02:25:10;74.68;;;38.03;;
11189;SDS011;5651;50.926;4.718;2022-08-19T02:27:38;72.65;;;36.88;;
11189;SDS011;5651;50.926;4.718;2022-08-19T02:30:05;72.40;;;35.88;;
11189;SDS011;5651;50.926;4.718;2022-08-19T02:32:32;79.13;;;39.00;;
11189;SDS011;5651;50.926;4.718;2022-08-19T02:34:58;74.18;;;36.72;;
11189;SDS011;5651;50.926;4.718;2022-08-19T02:37:24;77.30;;;36.97;;
11189;SDS011;5651;50.926;4.718;2022-08-19T02:40:08;72.57;;;36.55;;
11189;SDS011;5651;50.926;4.718;2022-08-19T02:42:34;78.32;;;37.95;;
11189;SDS011;5651;50.926;4.718;2022-08-19T02:45:00;69.75;;;35.50;;
11189;SDS011;5651;50.926;4.718;2022-08-19T02:47:26;80.63;;;37.50;;
11189;SDS011;5651;50.926;4.718;2022-08-19T02:49:52;80.63;;;38.83;;
11189;SDS011;5651;50.926;4.718;2022-08-19T02:52:17;75.63;;;37.92;;
11189;SDS011;5651;50.926;4.718;2022-08-19T02:54:43;75.32;;;38.15;;
11189;SDS011;5651;50.926;4.718;2022-08-19T02:57:09;92.15;;;40.53;;
11189;SDS011;5651;50.926;4.718;2022-08-19T02:59:35;83.57;;;38.95;;
11189;SDS011;5651;50.926;4.718;2022-08-19T03:02:00;76.47;;;38.67;;
11189;SDS011;5651;50.926;4.718;2022-08-19T03:04:26;83.90;;;37.10;;
11189;SDS011;5651;50.926;4.718;2022-08-19T03:06:52;81.53;;;37.15;;
11189;SDS011;5651;50.926;4.718;2022-08-19T03:09:19;76.95;;;36.90;;
11189;SDS011;5651;50.926;4.718;2022-08-19T03:11:45;79.18;;;37.85;;
11189;SDS011;5651;50.926;4.718;2022-08-19T03:14:11;89.57;;;42.60;;
11189;SDS011;5651;50.926;4.718;2022-08-19T03:16:42;88.07;;;39.20;;
11189;SDS011;5651;50.926;4.718;2022-08-19T03:19:18;85.32;;;38.10;;
11189;SDS011;5651;50.926;4.718;2022-08-19T03:21:46;87.45;;;38.63;;
11189;SDS011;5651;50.926;4.718;2022-08-19T03:24:13;87.88;;;39.38;;
11189;SDS011;5651;50.926;4.718;2022-08-19T03:26:43;87.63;;;39.08;;
11189;SDS011;5651;50.926;4.718;2022-08-19T03:29:14;99.47;;;41.03;;
11189;SDS011;5651;50.926;4.718;2022-08-19T03:31:43;104.28;;;43.22;;
11189;SDS011;5651;50.926;4.718;2022-08-19T03:34:14;95.00;;;40.95;;
11189;SDS011;5651;50.926;4.718;2022-08-19T03:36:43;86.93;;;40.03;;
11189;SDS011;5651;50.926;4.718;2022-08-19T03:39:10;101.03;;;42.00;;
11189;SDS011;5651;50.926;4.718;2022-08-19T03:41:37;98.85;;;43.72;;
11189;SDS011;5651;50.926;4.718;2022-08-19T03:44:04;97.93;;;41.92;;
11189;SDS011;5651;50.926;4.718;2022-08-19T03:46:31;89.47;;;40.20;;
11189;SDS011;5651;50.926;4.718;2022-08-19T03:49:00;89.03;;;40.85;;
11189;SDS011;5651;50.926;4.718;2022-08-19T03:51:37;99.50;;;42.33;;
11189;SDS011;5651;50.926;4.718;2022-08-19T03:54:05;88.43;;;42.22;;
11189;SDS011;5651;50.926;4.718;2022-08-19T03:56:36;95.10;;;41.60;;
11189;SDS011;5651;50.926;4.718;2022-08-19T03:59:04;88.43;;;40.40;;
11189;SDS011;5651;50.926;4.718;2022-08-19T04:01:31;91.00;;;38.53;;
11189;SDS011;5651;50.926;4.718;2022-08-19T04:03:57;90.18;;;38.90;;
11189;SDS011;5651;50.926;4.718;2022-08-19T04:06:28;97.18;;;41.92;;
11189;SDS011;5651;50.926;4.718;2022-08-19T04:08:57;90.88;;;40.10;;
11189;SDS011;5651;50.926;4.718;2022-08-19T04:11:29;86.30;;;40.42;;
11189;SDS011;5651;50.926;4.718;2022-08-19T04:13:58;84.53;;;38.47;;
11189;SDS011;5651;50.926;4.718;2022-08-19T04:16:25;87.13;;;37.92;;
11189;SDS011;5651;50.926;4.718;2022-08-19T04:18:55;85.68;;;37.60;;
11189;SDS011;5651;50.926;4.718;2022-08-19T04:21:25;88.25;;;38.72;;
11189;SDS011;5651;50.926;4.718;2022-08-19T04:23:51;95.05;;;38.28;;
11189;SDS011;5651;50.926;4.718;2022-08-19T04:26:20;89.47;;;37.45;;
11189;SDS011;5651;50.926;4.718;2022-08-19T04:28:48;92.78;;;36.78;;
11189;SDS011;5651;50.926;4.718;2022-08-19T04:31:16;85.38;;;37.58;;
11189;SDS011;5651;50.926;4.718;2022-08-19T04:33:44;86.82;;;36.53;;
11189;SDS011;5651;50.926;4.718;2022-08-19T04:36:20;83.00;;;37.05;;
11189;SDS011;5651;50.926;4.718;2022-08-19T04:38:48;87.15;;;38.35;;
11189;SDS011;5651;50.926;4.718;2022-08-19T04:41:15;82.47;;;35.53;;
11189;SDS011;5651;50.926;4.718;2022-08-19T04:44:00;84.90;;;36.20;;
11189;SDS011;5651;50.926;4.718;2022-08-19T04:46:27;83.47;;;38.05;;
11189;SDS011;5651;50.926;4.718;2022-08-19T04:48:55;86.90;;;37.55;;
11189;SDS011;5651;50.926;4.718;2022-08-19T04:51:22;84.63;;;36.47;;
11189;SDS011;5651;50.926;4.718;2022-08-19T04:53:48;84.38;;;36.03;;
11189;SDS011;5651;50.926;4.718;2022-08-19T04:56:16;75.65;;;34.25;;
11189;SDS011;5651;50.926;4.718;2022-08-19T04:58:45;80.65;;;35.35;;
11189;SDS011;5651;50.926;4.718;2022-08-19T05:01:16;77.05;;;36.45;;
11189;SDS011;5651;50.926;4.718;2022-08-19T05:03:47;79.05;;;35.15;;
11189;SDS011;5651;50.926;4.718;2022-08-19T05:06:14;76.07;;;33.28;;
11189;SDS011;5651;50.926;4.718;2022-08-19T05:08:41;73.85;;;34.33;;
11189;SDS011;5651;50.926;4.718;2022-08-19T05:11:10;76.65;;;36.97;;
11189;SDS011;5651;50.926;4.718;2022-08-19T05:13:38;68.45;;;32.20;;
11189;SDS011;5651;50.926;4.718;2022-08-19T05:16:05;66.68;;;31.35;;
11189;SDS011;5651;50.926;4.718;2022-08-19T05:18:31;68.13;;;32.05;;
11189;SDS011;5651;50.926;4.718;2022-08-19T05:21:16;69.28;;;31.73;;
11189;SDS011;5651;50.926;4.718;2022-08-19T05:24:02;64.22;;;31.42;;
11189;SDS011;5651;50.926;4.718;2022-08-19T05:26:33;59.13;;;29.98;;
11189;SDS011;5651;50.926;4.718;2022-08-19T05:29:03;60.08;;;28.95;;
11189;SDS011;5651;50.926;4.718;2022-08-19T05:31:30;58.00;;;28.75;;
11189;SDS011;5651;50.926;4.718;2022-08-19T05:33:56;57.05;;;30.77;;
11189;SDS011;5651;50.926;4.718;2022-08-19T05:36:24;59.20;;;30.95;;
11189;SDS011;5651;50.926;4.718;2022-08-19T05:38:51;55.92;;;29.88;;
11189;SDS011;5651;50.926;4.718;2022-08-19T05:41:18;52.55;;;28.45;;
11189;SDS011;5651;50.926;4.718;2022-08-19T05:43:45;48.35;;;27.05;;
11189;SDS011;5651;50.926;4.718;2022-08-19T05:46:20;47.40;;;27.13;;
11189;SDS011;5651;50.926;4.718;2022-08-19T05:48:45;44.45;;;25.75;;
11189;SDS011;5651;50.926;4.718;2022-08-19T05:51:11;47.88;;;25.15;;
11189;SDS011;5651;50.926;4.718;2022-08-19T05:53:38;43.47;;;23.67;;
11189;SDS011;5651;50.926;4.718;2022-08-19T05:56:04;36.90;;;21.83;;
11189;SDS011;5651;50.926;4.718;2022-08-19T05:58:36;40.92;;;21.80;;
11189;SDS011;5651;50.926;4.718;2022-08-19T06:01:03;41.70;;;21.67;;
11189;SDS011;5651;50.926;4.718;2022-08-19T06:03:34;35.95;;;21.65;;
11189;SDS011;5651;50.926;4.718;2022-08-19T06:06:05;37.63;;;21.63;;
11189;SDS011;5651;50.926;4.718;2022-08-19T06:08:33;37.83;;;20.70;;
11189;SDS011;5651;50.926;4.718;2022-08-19T06:14:04;45.60;;;23.25;;
11189;SDS011;5651;50.926;4.718;2022-08-19T06:16:37;34.05;;;19.92;;
11189;SDS011;5651;50.926;4.718;2022-08-19T06:19:06;31.15;;;18.27;;
11189;SDS011;5651;50.926;4.718;2022-08-19T06:21:33;36.10;;;20.48;;
11189;SDS011;5651;50.926;4.718;2022-08-19T06:24:03;31.77;;;18.02;;
11189;SDS011;5651;50.926;4.718;2022-08-19T06:26:31;36.88;;;20.10;;
11189;SDS011;5651;50.926;4.718;2022-08-19T06:28:59;30.80;;;16.85;;
11189;SDS011;5651;50.926;4.718;2022-08-19T06:31:26;32.95;;;16.90;;
11189;SDS011;5651;50.926;4.718;2022-08-19T06:33:53;32.92;;;17.15;;
11189;SDS011;5651;50.926;4.718;2022-08-19T06:38:53;32.40;;;17.73;;
11189;SDS011;5651;50.926;4.718;2022-08-19T06:41:19;28.13;;;17.45;;
11189;SDS011;5651;50.926;4.718;2022-08-19T06:43:45;34.30;;;17.60;;
11189;SDS011;5651;50.926;4.718;2022-08-19T06:46:13;32.15;;;18.27;;
11189;SDS011;5651;50.926;4.718;2022-08-19T06:48:41;31.33;;;17.60;;
11189;SDS011;5651;50.926;4.718;2022-08-19T06:51:07;35.35;;;19.80;;
11189;SDS011;5651;50.926;4.718;2022-08-19T06:53:33;29.50;;;17.20;;
11189;SDS011;5651;50.926;4.718;2022-08-19T06:55:59;29.23;;;15.85;;
11189;SDS011;5651;50.926;4.718;2022-08-19T06:58:30;27.17;;;16.40;;
11189;SDS011;5651;50.926;4.718;2022-08-19T07:01:03;29.83;;;16.30;;
11189;SDS011;5651;50.926;4.718;2022-08-19T07:03:30;27.30;;;15.70;;
11189;SDS011;5651;50.926;4.718;2022-08-19T07:06:05;25.48;;;16.10;;
11189;SDS011;5651;50.926;4.718;2022-08-19T07:08:33;25.10;;;16.10;;
11189;SDS011;5651;50.926;4.718;2022-08-19T07:11:02;28.73;;;15.95;;
11189;SDS011;5651;50.926;4.718;2022-08-19T07:13:32;24.58;;;15.80;;
11189;SDS011;5651;50.926;4.718;2022-08-19T07:16:06;27.95;;;15.85;;
11189;SDS011;5651;50.926;4.718;2022-08-19T07:18:33;26.48;;;14.80;;
11189;SDS011;5651;50.926;4.718;2022-08-19T07:21:07;22.90;;;13.52;;
11189;SDS011;5651;50.926;4.718;2022-08-19T07:23:35;25.73;;;15.63;;
11189;SDS011;5651;50.926;4.718;2022-08-19T07:26:05;26.52;;;15.18;;
11189;SDS011;5651;50.926;4.718;2022-08-19T07:28:32;27.77;;;15.35;;
11189;SDS011;5651;50.926;4.718;2022-08-19T07:30:58;24.60;;;13.90;;
11189;SDS011;5651;50.926;4.718;2022-08-19T07:33:24;21.80;;;11.63;;
11189;SDS011;5651;50.926;4.718;2022-08-19T07:35:52;21.70;;;10.75;;
11189;SDS011;5651;50.926;4.718;2022-08-19T07:38:17;17.80;;;11.68;;
11189;SDS011;5651;50.926;4.718;2022-08-19T07:40:46;16.13;;;9.85;;
11189;SDS011;5651;50.926;4.718;2022-08-19T07:43:12;15.93;;;9.05;;
11189;SDS011;5651;50.926;4.718;2022-08-19T07:45:37;20.13;;;9.43;;
11189;SDS011;5651;50.926;4.718;2022-08-19T07:48:03;12.73;;;7.78;;
11189;SDS011;5651;50.926;4.718;2022-08-19T07:50:29;17.55;;;8.20;;
11189;SDS011;5651;50.926;4.718;2022-08-19T07:52:55;11.63;;;7.35;;
11189;SDS011;5651;50.926;4.718;2022-08-19T07:55:22;14.60;;;8.38;;
11189;SDS011;5651;50.926;4.718;2022-08-19T07:57:50;13.38;;;7.35;;
11189;SDS011;5651;50.926;4.718;2022-08-19T08:00:17;11.57;;;6.57;;
11189;SDS011;5651;50.926;4.718;2022-08-19T08:02:43;13.05;;;6.97;;
11189;SDS011;5651;50.926;4.718;2022-08-19T08:05:09;12.85;;;7.20;;
11189;SDS011;5651;50.926;4.718;2022-08-19T08:07:54;13.27;;;6.75;;
11189;SDS011;5651;50.926;4.718;2022-08-19T08:10:39;11.38;;;6.85;;
11189;SDS011;5651;50.926;4.718;2022-08-19T08:13:05;13.88;;;6.53;;
11189;SDS011;5651;50.926;4.718;2022-08-19T08:15:31;9.48;;;5.78;;
11189;SDS011;5651;50.926;4.718;2022-08-19T08:17:57;13.88;;;6.35;;
11189;SDS011;5651;50.926;4.718;2022-08-19T08:20:23;12.98;;;5.70;;
11189;SDS011;5651;50.926;4.718;2022-08-19T08:22:49;13.90;;;5.97;;
11189;SDS011;5651;50.926;4.718;2022-08-19T08:25:34;11.73;;;6.35;;
11189;SDS011;5651;50.926;4.718;2022-08-19T08:28:01;12.27;;;6.30;;
11189;SDS011;5651;50.926;4.718;2022-08-19T08:30:28;11.95;;;6.20;;
11189;SDS011;5651;50.926;4.718;2022-08-19T08:32:54;9.75;;;5.40;;
11189;SDS011;5651;50.926;4.718;2022-08-19T08:35:22;11.65;;;6.07;;
11189;SDS011;5651;50.926;4.718;2022-08-19T08:37:49;9.95;;;6.30;;
11189;SDS011;5651;50.926;4.718;2022-08-19T08:43:14;10.38;;;6.25;;
11189;SDS011;5651;50.926;4.718;2022-08-19T08:46:08;8.27;;;5.65;;
11189;SDS011;5651;50.926;4.718;2022-08-19T08:51:46;12.75;;;8.80;;
11189;SDS011;5651;50.926;4.718;2022-08-19T08:54:18;8.38;;;6.03;;
11189;SDS011;5651;50.926;4.718;2022-08-19T08:56:46;11.23;;;7.40;;
11189;SDS011;5651;50.926;4.718;2022-08-19T08:59:30;12.07;;;8.15;;
11189;SDS011;5651;50.926;4.718;2022-08-19T09:01:59;10.38;;;7.60;;
11189;SDS011;5651;50.926;4.718;2022-08-19T09:04:25;11.70;;;7.25;;
11189;SDS011;5651;50.926;4.718;2022-08-19T09:09:41;14.35;;;7.93;;
11189;SDS011;5651;50.926;4.718;2022-08-19T09:12:15;10.73;;;6.65;;
11189;SDS011;5651;50.926;4.718;2022-08-19T09:15:09;8.90;;;5.35;;
11189;SDS011;5651;50.926;4.718;2022-08-19T09:17:37;8.13;;;5.15;;
11189;SDS011;5651;50.926;4.718;2022-08-19T09:22:39;9.95;;;6.20;;
11189;SDS011;5651;50.926;4.718;2022-08-19T09:25:07;11.35;;;5.47;;
11189;SDS011;5651;50.926;4.718;2022-08-19T09:27:35;15.05;;;6.63;;
11189;SDS011;5651;50.926;4.718;2022-08-19T09:30:03;10.68;;;5.53;;
11189;SDS011;5651;50.926;4.718;2022-08-19T09:32:30;8.23;;;5.07;;
11189;SDS011;5651;50.926;4.718;2022-08-19T09:34:55;8.45;;;5.20;;
11189;SDS011;5651;50.926;4.718;2022-08-19T09:37:23;12.57;;;5.40;;
11189;SDS011;5651;50.926;4.718;2022-08-19T09:39:50;13.13;;;6.22;;
11189;SDS011;5651;50.926;4.718;2022-08-19T09:42:16;8.25;;;4.65;;
11189;SDS011;5651;50.926;4.718;2022-08-19T09:44:42;11.48;;;5.50;;
11189;SDS011;5651;50.926;4.718;2022-08-19T09:47:09;11.05;;;4.82;;
11189;SDS011;5651;50.926;4.718;2022-08-19T09:49:36;10.45;;;5.45;;
11189;SDS011;5651;50.926;4.718;2022-08-19T09:52:04;8.70;;;4.93;;
11189;SDS011;5651;50.926;4.718;2022-08-19T09:54:30;8.98;;;5.18;;
11189;SDS011;5651;50.926;4.718;2022-08-19T09:56:57;11.40;;;5.68;;
11189;SDS011;5651;50.926;4.718;2022-08-19T09:59:25;8.63;;;5.47;;
11189;SDS011;5651;50.926;4.718;2022-08-19T10:01:52;10.13;;;5.28;;
11189;SDS011;5651;50.926;4.718;2022-08-19T10:04:18;8.32;;;5.35;;
11189;SDS011;5651;50.926;4.718;2022-08-19T10:06:44;9.82;;;4.80;;
11189;SDS011;5651;50.926;4.718;2022-08-19T10:09:13;7.10;;;4.72;;
11189;SDS011;5651;50.926;4.718;2022-08-19T10:11:41;10.32;;;6.22;;
11189;SDS011;5651;50.926;4.718;2022-08-19T10:14:15;8.60;;;5.07;;
11189;SDS011;5651;50.926;4.718;2022-08-19T10:16:42;10.07;;;6.45;;
11189;SDS011;5651;50.926;4.718;2022-08-19T10:19:08;12.50;;;6.38;;
11189;SDS011;5651;50.926;4.718;2022-08-19T10:21:34;10.57;;;5.80;;
11189;SDS011;5651;50.926;4.718;2022-08-19T10:24:01;9.55;;;5.90;;
11189;SDS011;5651;50.926;4.718;2022-08-19T10:26:30;9.85;;;5.85;;
11189;SDS011;5651;50.926;4.718;2022-08-19T10:28:58;10.13;;;5.70;;
11189;SDS011;5651;50.926;4.718;2022-08-19T10:31:25;10.95;;;6.43;;
11189;SDS011;5651;50.926;4.718;2022-08-19T10:33:55;8.73;;;6.13;;
11189;SDS011;5651;50.926;4.718;2022-08-19T10:36:30;8.32;;;4.85;;
11189;SDS011;5651;50.926;4.718;2022-08-19T10:38:59;8.68;;;5.07;;
11189;SDS011;5651;50.926;4.718;2022-08-19T10:41:29;10.82;;;5.55;;
11189;SDS011;5651;50.926;4.718;2022-08-19T10:43:57;9.23;;;5.72;;
11189;SDS011;5651;50.926;4.718;2022-08-19T10:46:29;9.77;;;5.20;;
11189;SDS011;5651;50.926;4.718;2022-08-19T10:49:01;8.55;;;4.90;;
11189;SDS011;5651;50.926;4.718;2022-08-19T10:51:28;9.38;;;5.18;;
11189;SDS011;5651;50.926;4.718;2022-08-19T10:54:12;10.57;;;5.55;;
11189;SDS011;5651;50.926;4.718;2022-08-19T10:56:38;11.18;;;5.25;;
11189;SDS011;5651;50.926;4.718;2022-08-19T10:59:17;9.60;;;5.72;;
11189;SDS011;5651;50.926;4.718;2022-08-19T11:01:45;7.82;;;4.93;;
11189;SDS011;5651;50.926;4.718;2022-08-19T11:04:11;8.85;;;5.53;;
11189;SDS011;5651;50.926;4.718;2022-08-19T11:06:39;9.00;;;5.75;;
11189;SDS011;5651;50.926;4.718;2022-08-19T11:09:07;9.98;;;5.13;;
11189;SDS011;5651;50.926;4.718;2022-08-19T11:11:34;9.77;;;5.50;;
11189;SDS011;5651;50.926;4.718;2022-08-19T11:14:10;8.32;;;5.15;;
11189;SDS011;5651;50.926;4.718;2022-08-19T11:16:39;9.40;;;5.05;;
11189;SDS011;5651;50.926;4.718;2022-08-19T11:19:07;11.25;;;5.35;;
11189;SDS011;5651;50.926;4.718;2022-08-19T11:21:36;12.98;;;4.95;;
11189;SDS011;5651;50.926;4.718;2022-08-19T11:24:05;7.38;;;3.90;;
11189;SDS011;5651;50.926;4.718;2022-08-19T11:26:34;7.15;;;4.00;;
11189;SDS011;5651;50.926;4.718;2022-08-19T11:29:01;8.05;;;4.43;;
11189;SDS011;5651;50.926;4.718;2022-08-19T11:31:31;6.82;;;3.30;;
11189;SDS011;5651;50.926;4.718;2022-08-19T11:34:01;4.93;;;3.63;;
11189;SDS011;5651;50.926;4.718;2022-08-19T11:36:28;5.03;;;2.83;;
11189;SDS011;5651;50.926;4.718;2022-08-19T11:38:54;5.43;;;3.20;;
11189;SDS011;5651;50.926;4.718;2022-08-19T11:41:21;5.75;;;3.50;;
11189;SDS011;5651;50.926;4.718;2022-08-19T11:43:49;4.80;;;3.40;;
11189;SDS011;5651;50.926;4.718;2022-08-19T11:46:16;6.15;;;3.10;;
11189;SDS011;5651;50.926;4.718;2022-08-19T11:48:43;6.50;;;2.95;;
11189;SDS011;5651;50.926;4.718;2022-08-19T11:51:10;5.15;;;2.75;;
11189;SDS011;5651;50.926;4.718;2022-08-19T11:53:38;6.45;;;3.60;;
11189;SDS011;5651;50.926;4.718;2022-08-19T11:56:04;7.70;;;4.57;;
11189;SDS011;5651;50.926;4.718;2022-08-19T11:58:31;6.38;;;4.07;;
11189;SDS011;5651;50.926;4.718;2022-08-19T12:00:57;8.60;;;4.55;;
11189;SDS011;5651;50.926;4.718;2022-08-19T12:03:23;8.70;;;4.85;;
11189;SDS011;5651;50.926;4.718;2022-08-19T12:05:49;6.65;;;3.72;;
11189;SDS011;5651;50.926;4.718;2022-08-19T12:08:16;6.88;;;4.82;;
11189;SDS011;5651;50.926;4.718;2022-08-19T12:10:42;7.10;;;4.80;;
11189;SDS011;5651;50.926;4.718;2022-08-19T12:13:09;10.00;;;5.13;;
11189;SDS011;5651;50.926;4.718;2022-08-19T12:15:38;9.57;;;4.88;;
11189;SDS011;5651;50.926;4.718;2022-08-19T12:18:10;7.65;;;4.80;;
11189;SDS011;5651;50.926;4.718;2022-08-19T12:20:36;8.27;;;4.97;;
11189;SDS011;5651;50.926;4.718;2022-08-19T12:23:04;7.97;;;4.80;;
11189;SDS011;5651;50.926;4.718;2022-08-19T12:25:31;7.38;;;4.60;;
11189;SDS011;5651;50.926;4.718;2022-08-19T12:27:58;6.78;;;4.18;;
11189;SDS011;5651;50.926;4.718;2022-08-19T12:30:24;9.25;;;5.00;;
11189;SDS011;5651;50.926;4.718;2022-08-19T12:32:50;6.88;;;4.32;;
11189;SDS011;5651;50.926;4.718;2022-08-19T12:35:16;6.95;;;4.25;;
11189;SDS011;5651;50.926;4.718;2022-08-19T12:37:45;6.20;;;4.50;;
11189;SDS011;5651;50.926;4.718;2022-08-19T12:40:13;7.93;;;5.13;;
11189;SDS011;5651;50.926;4.718;2022-08-19T12:42:40;8.52;;;5.22;;
11189;SDS011;5651;50.926;4.718;2022-08-19T12:45:09;9.77;;;6.35;;
11189;SDS011;5651;50.926;4.718;2022-08-19T12:47:36;9.38;;;6.45;;
11189;SDS011;5651;50.926;4.718;2022-08-19T12:50:02;12.65;;;6.88;;
11189;SDS011;5651;50.926;4.718;2022-08-19T12:52:29;9.70;;;6.43;;
11189;SDS011;5651;50.926;4.718;2022-08-19T12:54:55;9.68;;;5.97;;
11189;SDS011;5651;50.926;4.718;2022-08-19T12:57:22;7.82;;;5.25;;
11189;SDS011;5651;50.926;4.718;2022-08-19T12:59:53;8.52;;;6.03;;
11189;SDS011;5651;50.926;4.718;2022-08-19T13:02:19;9.05;;;6.07;;
11189;SDS011;5651;50.926;4.718;2022-08-19T13:04:46;7.45;;;5.38;;
11189;SDS011;5651;50.926;4.718;2022-08-19T13:07:12;10.23;;;6.40;;
11189;SDS011;5651;50.926;4.718;2022-08-19T13:09:38;9.77;;;6.28;;
11189;SDS011;5651;50.926;4.718;2022-08-19T13:12:06;8.38;;;5.93;;
11189;SDS011;5651;50.926;4.718;2022-08-19T13:14:36;10.35;;;5.47;;
11189;SDS011;5651;50.926;4.718;2022-08-19T13:17:01;8.35;;;6.15;;
11189;SDS011;5651;50.926;4.718;2022-08-19T13:19:27;8.60;;;6.25;;
11189;SDS011;5651;50.926;4.718;2022-08-19T13:21:53;9.98;;;4.97;;
11189;SDS011;5651;50.926;4.718;2022-08-19T13:24:20;7.25;;;4.63;;
11189;SDS011;5651;50.926;4.718;2022-08-19T13:26:46;6.78;;;5.20;;
11189;SDS011;5651;50.926;4.718;2022-08-19T13:29:12;7.03;;;4.68;;
11189;SDS011;5651;50.926;4.718;2022-08-19T13:31:57;7.10;;;4.28;;
11189;SDS011;5651;50.926;4.718;2022-08-19T13:34:42;6.43;;;4.18;;
11189;SDS011;5651;50.926;4.718;2022-08-19T13:37:08;7.95;;;4.57;;
11189;SDS011;5651;50.926;4.718;2022-08-19T13:39:34;6.20;;;4.30;;
11189;SDS011;5651;50.926;4.718;2022-08-19T13:42:01;5.40;;;3.95;;
11189;SDS011;5651;50.926;4.718;2022-08-19T13:44:29;6.85;;;4.22;;
11189;SDS011;5651;50.926;4.718;2022-08-19T13:47:05;5.97;;;4.40;;
11189;SDS011;5651;50.926;4.718;2022-08-19T13:49:32;8.10;;;5.40;;
11189;SDS011;5651;50.926;4.718;2022-08-19T13:51:58;6.53;;;4.65;;
11189;SDS011;5651;50.926;4.718;2022-08-19T13:54:24;6.75;;;3.80;;
11189;SDS011;5651;50.926;4.718;2022-08-19T13:56:51;5.85;;;4.00;;
11189;SDS011;5651;50.926;4.718;2022-08-19T13:59:17;7.60;;;3.78;;
11189;SDS011;5651;50.926;4.718;2022-08-19T14:01:43;6.63;;;4.05;;
11189;SDS011;5651;50.926;4.718;2022-08-19T14:04:09;7.97;;;3.80;;
11189;SDS011;5651;50.926;4.718;2022-08-19T14:06:34;7.55;;;3.85;;
11189;SDS011;5651;50.926;4.718;2022-08-19T14:09:00;4.53;;;3.47;;
11189;SDS011;5651;50.926;4.718;2022-08-19T14:11:27;4.63;;;3.30;;
11189;SDS011;5651;50.926;4.718;2022-08-19T14:13:54;5.03;;;3.22;;
11189;SDS011;5651;50.926;4.718;2022-08-19T14:16:19;7.53;;;3.42;;
11189;SDS011;5651;50.926;4.718;2022-08-19T14:18:47;5.00;;;2.30;;
11189;SDS011;5651;50.926;4.718;2022-08-19T14:21:16;4.85;;;2.28;;
11189;SDS011;5651;50.926;4.718;2022-08-19T14:23:45;3.90;;;2.50;;
11189;SDS011;5651;50.926;4.718;2022-08-19T14:26:12;3.05;;;2.08;;
11189;SDS011;5651;50.926;4.718;2022-08-19T14:28:40;4.28;;;2.28;;
11189;SDS011;5651;50.926;4.718;2022-08-19T14:31:14;4.22;;;2.10;;
11189;SDS011;5651;50.926;4.718;2022-08-19T14:33:45;7.85;;;2.20;;
11189;SDS011;5651;50.926;4.718;2022-08-19T14:36:11;4.15;;;1.90;;
11189;SDS011;5651;50.926;4.718;2022-08-19T14:38:37;2.80;;;1.90;;
11189;SDS011;5651;50.926;4.718;2022-08-19T14:41:07;3.75;;;1.77;;
11189;SDS011;5651;50.926;4.718;2022-08-19T14:43:35;2.85;;;1.70;;
11189;SDS011;5651;50.926;4.718;2022-08-19T14:46:01;2.83;;;1.40;;
11189;SDS011;5651;50.926;4.718;2022-08-19T14:48:27;3.15;;;1.67;;
11189;SDS011;5651;50.926;4.718;2022-08-19T14:50:52;3.30;;;1.27;;
11189;SDS011;5651;50.926;4.718;2022-08-19T14:53:18;4.30;;;1.45;;
11189;SDS011;5651;50.926;4.718;2022-08-19T14:55:44;2.13;;;1.30;;
11189;SDS011;5651;50.926;4.718;2022-08-19T14:58:11;2.97;;;1.42;;
11189;SDS011;5651;50.926;4.718;2022-08-19T15:00:37;4.45;;;1.85;;
11189;SDS011;5651;50.926;4.718;2022-08-19T15:03:04;3.85;;;1.90;;
11189;SDS011;5651;50.926;4.718;2022-08-19T15:05:29;4.30;;;1.60;;
11189;SDS011;5651;50.926;4.718;2022-08-19T15:07:55;5.55;;;2.00;;
11189;SDS011;5651;50.926;4.718;2022-08-19T15:10:22;4.07;;;1.70;;